KCOE

Coeur D'alene - Pappy Boyington Field Airport

Coeur D'alene, Idaho, USA
METAR KCOE 201238Z AUTO 19011KT 10SM OVC027 02/M01 A2996 RMK AO2 RAB04E19UPB19E23 P0000 FZRANO
Observed Flight Rules
Jan-20 @ 12:38 UTC (29 minutes ago) Marginal Visual Flight Rules
Wind Visibility Clouds
190° at 11 knots 10 miles
  • Overcast at 2,700' AGL
Temperatures Readings Precipitation
Current 2°C / 36°F
Dewpoint -1°C / 30°F
Humidity 81%
Altimeter 29.96" Hg
Pressure 1015 hPa
Elevation 707
Current Rain 0.005
METAR KCOE 201238Z AUTO 19011KT 10SM OVC027 02/M01 A2996 RMK AO2 RAB04E19UPB19E23 P0000 FZRANO
Observed Flight Rules
Jan-20 @ 12:38 UTC
(29 minutes ago)
MVFR
Wind Visibility
190° at 11 knots 10 miles
Clouds
  • Overcast at 2,700' AGL
Temperature Dewpoint
2°C / 36°F -1°C / 30°F
Humidity Altimeter Pressure
81% 29.96" Hg 1015 hPa
Current Rain
0.005